createdAt,value
2022-10-03T00:02:18.670Z,1.70
2022-10-03T00:05:02.590Z,1.90
2022-10-03T00:07:45.590Z,1.70
2022-10-03T00:10:26.195Z,1.80
2022-10-03T00:13:09.729Z,2.20
2022-10-03T00:15:44.850Z,2.20
2022-10-03T00:18:30.573Z,2.27
2022-10-03T00:21:17.566Z,2.67
2022-10-03T00:23:55.482Z,2.53
2022-10-03T00:26:31.902Z,2.03
2022-10-03T00:29:16.079Z,2.27
2022-10-03T00:31:54.180Z,2.30
2022-10-03T00:34:34.461Z,2.70
2022-10-03T00:37:25.462Z,2.73
2022-10-03T00:40:26.160Z,2.00
2022-10-03T00:43:24.213Z,2.17
2022-10-03T00:46:24.374Z,2.57
2022-10-03T00:49:28.210Z,2.40
2022-10-03T00:52:07.179Z,2.70
2022-10-03T00:54:52.850Z,2.03
2022-10-03T00:57:50.716Z,2.17
2022-10-03T01:00:25.036Z,2.77
2022-10-03T01:03:25.355Z,2.03
2022-10-03T01:06:12.846Z,2.90
2022-10-03T01:09:05.347Z,2.20
2022-10-03T01:11:44.156Z,2.20
2022-10-03T01:14:31.193Z,2.37
2022-10-03T01:17:14.904Z,2.67
2022-10-03T01:20:00.446Z,2.20
2022-10-03T01:22:55.810Z,2.30
2022-10-03T01:25:38.436Z,2.10
2022-10-03T01:28:41.539Z,1.90
2022-10-03T01:31:14.791Z,2.10
2022-10-03T01:33:47.553Z,1.47
2022-10-03T01:36:21.477Z,1.67
2022-10-03T01:38:54.712Z,2.30
2022-10-03T01:41:29.571Z,1.53
2022-10-03T01:44:03.286Z,2.20
2022-10-03T01:46:39.582Z,1.93
2022-10-03T01:49:18.026Z,2.25
2022-10-03T01:51:57.808Z,2.27
2022-10-03T01:54:36.060Z,2.20
2022-10-03T01:57:12.619Z,2.27
2022-10-03T01:59:47.520Z,1.90
2022-10-03T02:02:27.264Z,2.47
2022-10-03T02:05:04.509Z,2.20
2022-10-03T02:07:44.100Z,1.80
2022-10-03T02:10:25.863Z,1.80
2022-10-03T02:13:05.062Z,2.30
2022-10-03T02:15:42.526Z,1.90
2022-10-03T02:18:19.064Z,2.37
2022-10-03T02:20:53.552Z,1.97
2022-10-03T02:23:39.658Z,2.03
2022-10-03T02:26:46.651Z,1.60
2022-10-03T02:29:34.868Z,2.20
2022-10-03T02:32:36.524Z,1.90
2022-10-03T02:35:43.408Z,1.90
2022-10-03T02:38:26.352Z,2.30
2022-10-03T02:41:19.331Z,1.93
2022-10-03T02:44:23.863Z,2.67
2022-10-03T02:47:39.101Z,2.10
2022-10-03T02:50:32.859Z,2.40
2022-10-03T02:53:23.143Z,1.80
2022-10-03T02:56:27.627Z,2.53
2022-10-03T02:59:41.711Z,1.70
2022-10-03T03:02:33.641Z,2.10
2022-10-03T03:05:42.957Z,1.90
2022-10-03T03:08:49.958Z,1.63
2022-10-03T03:11:44.282Z,2.40
2022-10-03T03:14:50.398Z,1.73
2022-10-03T03:17:28.008Z,1.50
2022-10-03T03:20:26.954Z,2.10
2022-10-03T03:23:19.716Z,1.97
2022-10-03T03:26:09.167Z,1.70
2022-10-03T03:28:50.591Z,2.60
2022-10-03T03:31:33.780Z,1.77
2022-10-03T03:34:14.640Z,1.73
2022-10-03T03:36:54.235Z,1.90
2022-10-03T03:39:50.411Z,1.67
2022-10-03T03:42:39.523Z,1.53
2022-10-03T03:45:30.512Z,1.97
2022-10-03T03:48:13.680Z,1.50
2022-10-03T03:50:53.575Z,1.63
2022-10-03T03:53:38.523Z,1.80
2022-10-03T03:56:34.309Z,2.10
2022-10-03T03:59:13.491Z,1.57
2022-10-03T04:02:08.859Z,2.00
2022-10-03T04:04:55.807Z,1.57
2022-10-03T04:07:36.381Z,2.27
2022-10-03T04:10:29.768Z,2.33
2022-10-03T04:13:25.628Z,1.63
2022-10-03T04:16:53.093Z,2.10
2022-10-03T04:19:33.454Z,1.80
2022-10-03T04:22:29.636Z,1.83
2022-10-03T04:25:26.310Z,1.80
2022-10-03T04:28:17.590Z,1.60
2022-10-03T04:31:02.567Z,1.70
2022-10-03T04:33:44.252Z,1.80
2022-10-03T04:36:50.971Z,2.37
2022-10-03T04:39:30.672Z,1.80
2022-10-03T04:42:09.814Z,2.17
2022-10-03T04:44:59.333Z,1.70
2022-10-03T04:47:30.912Z,1.90
2022-10-03T04:50:11.101Z,2.00
2022-10-03T04:52:43.972Z,1.77
2022-10-03T04:55:25.368Z,1.80
2022-10-03T04:58:05.063Z,1.60
2022-10-03T05:00:49.046Z,1.43
2022-10-03T05:03:22.618Z,1.60
2022-10-03T05:05:56.138Z,2.07
2022-10-03T05:08:40.844Z,1.43
2022-10-03T05:11:20.581Z,1.67
2022-10-03T05:14:08.391Z,1.53
2022-10-03T05:16:46.341Z,1.73
2022-10-03T05:19:41.593Z,1.60
2022-10-03T05:22:19.088Z,1.77
2022-10-03T05:24:58.465Z,1.47
2022-10-03T05:27:35.688Z,1.60
2022-10-03T05:30:10.965Z,1.50
2022-10-03T05:32:46.450Z,1.60
2022-10-03T05:35:30.353Z,1.80
2022-10-03T05:38:24.489Z,1.97
2022-10-03T05:41:03.406Z,1.90
2022-10-03T05:43:50.512Z,2.07
2022-10-03T05:46:30.611Z,1.83
2022-10-03T05:49:21.042Z,1.43
2022-10-03T05:52:34.452Z,1.77
2022-10-03T05:55:24.591Z,1.30
2022-10-03T05:58:37.716Z,1.80
2022-10-03T06:01:30.328Z,1.70
2022-10-03T06:04:11.590Z,1.70
2022-10-03T06:06:53.241Z,1.77
2022-10-03T06:10:11.029Z,2.00
2022-10-03T06:12:51.885Z,2.00
2022-10-03T06:15:42.626Z,2.23
2022-10-03T06:18:37.602Z,2.20
2022-10-03T06:21:35.011Z,2.10
2022-10-03T06:24:39.887Z,1.90
2022-10-03T06:27:53.009Z,1.70
2022-10-03T06:30:32.110Z,2.07
2022-10-03T06:33:29.411Z,1.73
2022-10-03T06:36:30.755Z,1.70
2022-10-03T06:39:36.103Z,1.87
2022-10-03T06:42:36.449Z,2.40
2022-10-03T06:45:47.581Z,2.00
2022-10-03T06:48:28.815Z,2.00
2022-10-03T06:51:17.305Z,2.00
2022-10-03T06:54:18.846Z,2.23
2022-10-03T06:57:12.310Z,2.30
2022-10-03T07:00:11.771Z,1.73
2022-10-03T07:03:19.348Z,1.70
2022-10-03T07:06:17.283Z,2.57
2022-10-03T07:09:17.220Z,2.33
2022-10-03T07:12:18.005Z,2.70
2022-10-03T07:15:16.153Z,2.57
2022-10-03T07:18:03.474Z,2.20
2022-10-03T07:20:59.598Z,3.53
2022-10-03T07:23:52.423Z,2.97
2022-10-03T07:26:49.835Z,3.43
2022-10-03T07:29:31.129Z,3.58
2022-10-03T07:32:21.411Z,2.67
2022-10-03T07:35:51.463Z,2.67
2022-10-03T07:38:58.853Z,3.40
2022-10-03T07:41:54.960Z,3.80
2022-10-03T07:44:54.394Z,3.27
2022-10-03T07:48:05.743Z,3.50
2022-10-03T07:50:51.664Z,3.17
2022-10-03T07:53:49.235Z,3.23
2022-10-03T07:56:48.352Z,3.87
2022-10-03T07:59:58.062Z,3.23
2022-10-03T08:02:56.943Z,3.27
2022-10-03T08:05:37.431Z,3.27
2022-10-03T08:08:32.006Z,3.37
2022-10-03T08:11:51.183Z,3.00
2022-10-03T08:14:23.098Z,3.93
2022-10-03T08:17:23.179Z,3.10
2022-10-03T08:20:17.093Z,3.00
2022-10-03T08:22:59.147Z,3.50
2022-10-03T08:25:36.621Z,3.27
2022-10-03T08:28:25.352Z,2.40
2022-10-03T08:31:18.558Z,2.93
2022-10-03T08:34:18.584Z,3.20
2022-10-03T08:37:36.935Z,2.87
2022-10-03T08:40:53.628Z,2.50
2022-10-03T08:43:57.886Z,2.50
2022-10-03T08:46:52.754Z,2.20
2022-10-03T08:49:51.840Z,2.77
2022-10-03T08:52:36.246Z,2.60
2022-10-03T08:55:41.094Z,3.30
2022-10-03T08:58:55.401Z,2.17
2022-10-03T09:01:55.442Z,3.07
2022-10-03T09:05:07.741Z,2.57
2022-10-03T09:08:26.529Z,2.40
2022-10-03T09:11:30.775Z,2.33
2022-10-03T09:14:41.453Z,1.97
2022-10-03T09:17:51.192Z,2.87
2022-10-03T09:20:49.394Z,2.43
2022-10-03T09:24:14.667Z,2.37
2022-10-03T09:27:16.217Z,2.23
2022-10-03T09:30:11.641Z,2.20
2022-10-03T09:33:12.993Z,2.03
2022-10-03T09:35:51.572Z,2.57
2022-10-03T09:38:47.233Z,3.00
2022-10-03T09:41:33.061Z,1.63
2022-10-03T09:44:30.174Z,2.40
2022-10-03T09:47:28.900Z,2.87
2022-10-03T09:50:47.842Z,2.60
2022-10-03T09:53:57.188Z,2.00
2022-10-03T09:56:57.115Z,2.30
2022-10-03T09:59:41.684Z,2.30
2022-10-03T10:02:52.851Z,1.80
2022-10-03T10:06:02.373Z,2.20
2022-10-03T10:09:02.718Z,2.00
2022-10-03T10:11:44.072Z,1.73
2022-10-03T10:14:59.952Z,1.70
2022-10-03T10:18:01.750Z,1.57
2022-10-03T10:21:03.313Z,2.00
2022-10-03T10:23:53.681Z,1.70
2022-10-03T10:27:03.252Z,1.50
2022-10-03T10:29:54.599Z,1.60
2022-10-03T10:32:56.142Z,1.47
2022-10-03T10:35:59.507Z,1.30
2022-10-03T10:38:59.990Z,1.87
2022-10-03T10:42:20.488Z,1.77
2022-10-03T10:45:35.941Z,2.13
2022-10-03T10:48:42.210Z,2.13
2022-10-03T10:51:40.062Z,1.73
2022-10-03T10:54:42.031Z,2.10
2022-10-03T10:57:26.876Z,1.90
2022-10-03T11:00:20.099Z,1.60
2022-10-03T11:03:17.977Z,1.67
2022-10-03T11:06:22.628Z,1.63
2022-10-03T11:09:28.298Z,1.50
2022-10-03T11:12:38.154Z,1.43
2022-10-03T11:15:47.642Z,1.73
2022-10-03T11:19:01.426Z,1.70
2022-10-03T11:22:10.520Z,1.43
2022-10-03T11:25:23.513Z,1.37
2022-10-03T11:28:27.793Z,1.37
2022-10-03T11:31:33.695Z,1.63
2022-10-03T11:34:49.089Z,2.07
2022-10-03T11:37:28.928Z,1.30
2022-10-03T11:40:19.676Z,1.77
2022-10-03T11:42:58.549Z,1.80
2022-10-03T11:45:33.876Z,1.87
2022-10-03T11:48:30.692Z,1.13
2022-10-03T11:51:03.830Z,1.53
2022-10-03T11:53:44.618Z,1.30
2022-10-03T11:56:39.169Z,1.10
2022-10-03T11:59:44.754Z,1.43
2022-10-03T12:02:38.850Z,1.33
2022-10-03T12:05:15.297Z,1.97
2022-10-03T12:08:08.110Z,1.87
2022-10-03T12:10:47.614Z,1.30
2022-10-03T12:13:19.491Z,1.20
2022-10-03T12:15:50.212Z,1.37
2022-10-03T12:18:32.032Z,1.80
2022-10-03T12:21:07.541Z,1.70
2022-10-03T12:24:00.965Z,0.93
2022-10-03T12:26:43.540Z,2.67
2022-10-03T12:29:14.413Z,2.03
2022-10-03T12:31:48.316Z,1.60
2022-10-03T12:34:40.293Z,1.50
2022-10-03T12:37:38.026Z,2.30
2022-10-03T12:40:16.005Z,1.57
2022-10-03T12:42:53.546Z,1.43
2022-10-03T12:45:28.469Z,1.57
2022-10-03T12:48:13.284Z,1.23
2022-10-03T12:50:55.121Z,1.10
2022-10-03T12:53:32.575Z,0.77
2022-10-03T12:56:12.660Z,1.23
2022-10-03T12:59:03.551Z,0.90
2022-10-03T13:01:47.895Z,1.03
2022-10-03T13:04:30.021Z,1.30
2022-10-03T13:07:21.806Z,1.10
2022-10-03T13:10:11.513Z,1.13
2022-10-03T13:12:49.730Z,0.73
2022-10-03T13:15:45.269Z,1.13
2022-10-03T13:18:45.007Z,0.90
2022-10-03T13:21:44.401Z,1.30
2022-10-03T13:24:22.379Z,1.00
2022-10-03T13:26:58.315Z,0.80
2022-10-03T13:29:30.804Z,1.00
2022-10-03T13:32:09.934Z,1.00
2022-10-03T13:34:52.278Z,1.00
2022-10-03T13:37:31.508Z,1.07
2022-10-03T13:40:08.159Z,1.07
2022-10-03T13:42:41.079Z,1.47
2022-10-03T13:45:16.195Z,1.33
2022-10-03T13:47:52.056Z,1.30
2022-10-03T13:50:26.667Z,1.70
2022-10-03T13:53:01.185Z,1.53
2022-10-03T13:55:42.721Z,1.27
2022-10-03T13:58:40.589Z,1.23
2022-10-03T14:01:35.291Z,1.10
2022-10-03T14:04:23.350Z,1.30
2022-10-03T14:06:56.910Z,1.10
2022-10-03T14:09:42.519Z,1.23
2022-10-03T14:12:37.858Z,1.70
2022-10-03T14:15:23.825Z,2.07
2022-10-03T14:18:09.686Z,2.20
2022-10-03T14:20:42.392Z,1.97
2022-10-03T14:23:24.705Z,1.20
2022-10-03T14:26:02.514Z,1.00
2022-10-03T14:28:37.375Z,1.13
2022-10-03T14:31:17.453Z,1.10
2022-10-03T14:33:52.372Z,1.37
2022-10-03T14:36:34.071Z,1.73
2022-10-03T14:39:22.512Z,1.50
2022-10-03T14:42:24.857Z,1.53
2022-10-03T14:44:59.550Z,1.00
2022-10-03T14:47:35.383Z,1.03
2022-10-03T14:50:05.539Z,1.03
2022-10-03T14:52:44.043Z,0.97
2022-10-03T14:55:18.871Z,1.40
2022-10-03T14:58:09.740Z,1.20
2022-10-03T15:00:45.260Z,1.17
2022-10-03T15:03:39.847Z,1.20
2022-10-03T15:06:53.849Z,1.07
2022-10-03T15:09:26.219Z,1.23
2022-10-03T15:12:00.402Z,1.13
2022-10-03T15:14:31.433Z,1.47
2022-10-03T15:17:02.574Z,1.17
2022-10-03T15:19:37.454Z,0.90
2022-10-03T15:22:17.203Z,0.83
2022-10-03T15:24:48.830Z,1.13
2022-10-03T15:27:22.380Z,1.10
2022-10-03T15:29:56.730Z,1.23
2022-10-03T15:32:38.414Z,1.20
2022-10-03T15:35:08.048Z,1.10
2022-10-03T15:37:47.645Z,1.00
2022-10-03T15:40:23.566Z,1.40
2022-10-03T15:43:04.630Z,1.63
2022-10-03T15:45:36.129Z,0.93
2022-10-03T15:48:14.913Z,1.20
2022-10-03T15:50:43.722Z,0.90
2022-10-03T15:53:36.017Z,1.60
2022-10-03T15:56:15.136Z,1.53
2022-10-03T15:58:49.867Z,1.67
2022-10-03T16:01:23.749Z,1.70
2022-10-03T16:04:00.977Z,1.67
2022-10-03T16:06:35.944Z,1.30
2022-10-03T16:09:15.868Z,1.60
2022-10-03T16:11:55.793Z,2.27
2022-10-03T16:14:29.086Z,2.20
2022-10-03T16:17:00.762Z,1.87
2022-10-03T16:19:33.945Z,1.97
2022-10-03T16:22:14.764Z,2.00
2022-10-03T16:24:47.861Z,2.10
2022-10-03T16:27:19.272Z,1.80
2022-10-03T16:29:55.005Z,1.57
2022-10-03T16:32:25.689Z,1.50
2022-10-03T16:35:01.459Z,1.73
2022-10-03T16:37:33.222Z,2.13
2022-10-03T16:40:03.765Z,1.87
2022-10-03T16:42:43.263Z,1.87
2022-10-03T16:45:25.273Z,1.53
2022-10-03T16:48:09.764Z,1.80
2022-10-03T16:50:44.395Z,2.27
2022-10-03T16:53:13.513Z,2.53
2022-10-03T16:55:49.604Z,3.13
2022-10-03T16:58:23.790Z,3.10
2022-10-03T17:01:22.499Z,2.30
2022-10-03T17:03:55.863Z,2.37
2022-10-03T17:06:30.734Z,2.80
2022-10-03T17:09:02.126Z,2.60
2022-10-03T17:11:37.368Z,3.03
2022-10-03T17:14:08.108Z,5.57
2022-10-03T17:16:47.325Z,5.13
2022-10-03T17:19:22.058Z,5.23
2022-10-03T17:21:54.965Z,3.75
2022-10-03T17:24:33.389Z,3.33
2022-10-03T17:27:05.674Z,3.40
2022-10-03T17:29:36.767Z,3.20
2022-10-03T17:32:15.516Z,2.80
2022-10-03T17:34:48.371Z,2.67
2022-10-03T17:37:33.317Z,3.03
2022-10-03T17:40:17.584Z,3.30
2022-10-03T17:42:47.888Z,3.67
2022-10-03T17:45:42.931Z,4.03
2022-10-03T17:48:15.514Z,3.90
2022-10-03T17:50:57.444Z,4.67
2022-10-03T17:53:32.215Z,4.60
2022-10-03T17:56:06.182Z,3.73
2022-10-03T17:58:35.355Z,4.00
2022-10-03T18:01:11.373Z,3.60
2022-10-03T18:03:48.415Z,4.00
2022-10-03T18:06:40.772Z,3.80
2022-10-03T18:09:19.892Z,3.90
2022-10-03T18:11:51.215Z,3.27
2022-10-03T18:14:32.009Z,3.40
2022-10-03T18:17:08.327Z,3.90
2022-10-03T18:19:57.284Z,3.67
2022-10-03T18:22:35.071Z,4.33
2022-10-03T18:25:33.293Z,6.27
2022-10-03T18:28:20.339Z,6.47
2022-10-03T18:30:57.196Z,5.30
2022-10-03T18:33:32.298Z,6.33
2022-10-03T18:36:08.914Z,5.13
2022-10-03T18:38:42.157Z,5.40
2022-10-03T18:41:19.179Z,5.40
2022-10-03T18:43:58.539Z,4.90
2022-10-03T18:46:35.088Z,4.87
2022-10-03T18:49:32.030Z,4.83
2022-10-03T18:52:00.333Z,4.70
2022-10-03T18:54:39.587Z,5.20
2022-10-03T18:57:18.706Z,4.90
2022-10-03T18:59:56.012Z,5.67
2022-10-03T19:02:31.734Z,4.90
2022-10-03T19:05:12.991Z,5.13
2022-10-03T19:07:49.368Z,4.80
2022-10-03T19:10:32.870Z,5.03
2022-10-03T19:13:12.289Z,5.40
2022-10-03T19:15:53.947Z,5.60
2022-10-03T19:18:27.394Z,5.40
2022-10-03T19:20:57.980Z,4.83
2022-10-03T19:23:30.964Z,6.13
2022-10-03T19:26:06.325Z,5.63
2022-10-03T19:28:38.771Z,5.80
2022-10-03T19:31:17.316Z,6.07
2022-10-03T19:33:51.397Z,5.30
2022-10-03T19:36:23.576Z,4.80
2022-10-03T19:38:54.768Z,4.87
2022-10-03T19:41:30.708Z,4.60
2022-10-03T19:44:07.386Z,3.63
2022-10-03T19:46:58.920Z,4.37
2022-10-03T19:49:47.427Z,4.00
2022-10-03T19:52:28.588Z,4.33
2022-10-03T19:55:05.322Z,3.70
2022-10-03T19:57:42.936Z,3.20
2022-10-03T20:00:27.970Z,3.50
2022-10-03T20:03:04.817Z,4.20
2022-10-03T20:05:37.959Z,3.63
2022-10-03T20:08:21.252Z,2.97
2022-10-03T20:11:21.019Z,3.53
2022-10-03T20:13:50.224Z,2.90
2022-10-03T20:16:24.159Z,2.80
2022-10-03T20:18:56.672Z,2.50
2022-10-03T20:21:27.772Z,3.00
2022-10-03T20:23:59.417Z,2.10
2022-10-03T20:26:37.053Z,2.23
2022-10-03T20:29:21.472Z,2.20
2022-10-03T20:31:51.995Z,2.10
2022-10-03T20:34:24.987Z,2.30
2022-10-03T20:37:07.187Z,2.50
2022-10-03T20:39:41.579Z,2.50
2022-10-03T20:42:14.846Z,2.87
2022-10-03T20:44:55.156Z,2.80
2022-10-03T20:47:39.952Z,2.93
2022-10-03T20:50:18.791Z,2.60
2022-10-03T20:52:54.685Z,2.90
2022-10-03T20:55:27.034Z,2.43
2022-10-03T20:58:18.945Z,2.80
2022-10-03T21:00:49.630Z,2.47
2022-10-03T21:03:29.536Z,3.47
2022-10-03T21:06:01.550Z,2.80
2022-10-03T21:08:36.424Z,2.77
2022-10-03T21:11:24.916Z,3.23
2022-10-03T21:13:56.772Z,2.63
2022-10-03T21:16:29.947Z,2.70
2022-10-03T21:19:03.816Z,2.87
2022-10-03T21:21:42.912Z,2.80
2022-10-03T21:24:17.300Z,2.70
2022-10-03T21:26:47.781Z,3.10
2022-10-03T21:29:28.759Z,3.23
2022-10-03T21:32:15.635Z,3.03
2022-10-03T21:34:53.424Z,2.87
2022-10-03T21:37:31.509Z,3.40
2022-10-03T21:40:15.821Z,3.77
2022-10-03T21:42:57.406Z,3.67
2022-10-03T21:45:35.237Z,4.40
2022-10-03T21:48:18.827Z,3.60
2022-10-03T21:50:55.851Z,3.60
2022-10-03T21:53:35.849Z,4.27
2022-10-03T21:56:21.709Z,4.27
2022-10-03T21:59:19.152Z,4.97
2022-10-03T22:01:55.419Z,4.10
2022-10-03T22:04:31.878Z,4.37
2022-10-03T22:07:10.374Z,3.93
2022-10-03T22:09:46.741Z,4.00
2022-10-03T22:12:16.945Z,4.20
2022-10-03T22:14:51.497Z,4.00
2022-10-03T22:17:28.692Z,3.47
2022-10-03T22:20:14.120Z,4.00
2022-10-03T22:22:56.264Z,3.47
2022-10-03T22:25:44.223Z,3.27
2022-10-03T22:28:20.426Z,3.70
2022-10-03T22:31:01.758Z,4.00
2022-10-03T22:33:44.306Z,3.87
2022-10-03T22:36:14.833Z,3.20
2022-10-03T22:38:45.303Z,3.30
2022-10-03T22:41:18.802Z,3.13
2022-10-03T22:43:50.642Z,3.30
2022-10-03T22:46:22.773Z,3.33
2022-10-03T22:49:02.529Z,2.90
2022-10-03T22:51:36.433Z,3.17
2022-10-03T22:54:16.614Z,3.13
2022-10-03T22:56:48.219Z,2.50
2022-10-03T22:59:23.151Z,2.93
2022-10-03T23:01:53.594Z,2.43
2022-10-03T23:04:29.451Z,2.67
2022-10-03T23:07:14.878Z,2.87
2022-10-03T23:09:56.827Z,2.63
2022-10-03T23:12:30.437Z,2.90
2022-10-03T23:15:04.508Z,2.60
2022-10-03T23:17:48.866Z,2.80
2022-10-03T23:20:27.625Z,2.50
2022-10-03T23:23:00.654Z,2.73
2022-10-03T23:25:37.174Z,2.60
2022-10-03T23:28:17.613Z,2.67
2022-10-03T23:30:51.020Z,2.73
2022-10-03T23:33:35.583Z,2.40
2022-10-03T23:36:12.310Z,2.40
2022-10-03T23:38:59.524Z,2.83
2022-10-03T23:41:44.001Z,2.37
2022-10-03T23:44:35.438Z,2.40
2022-10-03T23:47:07.611Z,2.40
2022-10-03T23:49:39.963Z,2.27
2022-10-03T23:52:13.983Z,2.33
2022-10-03T23:54:43.849Z,2.30
2022-10-03T23:57:16.903Z,2.40
2022-10-03T23:59:45.623Z,2.50
